Time;durP1;ratioP1;P1;durP2;ratioP2;P2;SDS_P1;SDS_P2;PMS_P1;PMS_P2;Temp;Humidity;BMP_temperature;BMP_pressure;BME280_temperature;BME280_humidity;BME280_pressure;Samples;Min_cycle;Max_cycle;Signal;HPM_P1;HPM_P2
2022/08/26 00:00:44;;;;;;;13.73;12.53;;;;;26.30;100217.00;;;;2087336;28;20689;-57
2022/08/26 00:01:44;;;;;;;12.37;11.27;;;;;26.30;100235.00;;;;2087335;28;20239;-57
2022/08/26 00:02:45;;;;;;;12.60;11.60;;;;;26.30;100220.00;;;;2085345;28;20970;-56
2022/08/26 00:03:45;;;;;;;13.57;12.47;;;;;26.30;100218.00;;;;2086927;28;20219;-57
2022/08/26 00:04:46;;;;;;;12.70;11.60;;;;;26.30;100218.00;;;;2086707;28;20225;-57
2022/08/26 00:05:46;;;;;;;13.30;12.10;;;;;26.30;100219.00;;;;2086975;28;20792;-57
2022/08/26 00:06:47;;;;;;;11.90;10.90;;;;;26.30;100213.00;;;;2091852;28;20668;-56
2022/08/26 00:07:47;;;;;;;12.60;11.60;;;;;26.30;100215.00;;;;2091999;28;20274;-57
2022/08/26 00:08:47;;;;;;;11.77;10.77;;;;;26.30;100216.00;;;;2087372;28;20212;-56
2022/08/26 00:09:48;;;;;;;13.03;11.90;;;;;26.40;100215.00;;;;2087363;28;20216;-56
2022/08/26 00:10:48;;;;;;;12.20;11.10;;;;;26.40;100221.00;;;;2093764;28;20216;-57
2022/08/26 00:11:48;;;;;;;13.10;12.00;;;;;26.40;100217.00;;;;2078606;28;20244;-57
2022/08/26 00:12:49;;;;;;;12.70;11.60;;;;;26.40;100220.00;;;;2090542;28;20244;-57
2022/08/26 00:13:49;;;;;;;12.70;11.60;;;;;26.30;100211.00;;;;2086572;28;20231;-56
2022/08/26 00:14:50;;;;;;;12.50;11.40;;;;;26.30;100220.00;;;;2085823;28;20703;-56
2022/08/26 00:15:50;;;;;;;13.07;11.90;;;;;26.40;100228.00;;;;2092029;28;20793;-56
2022/08/26 00:16:51;;;;;;;11.97;10.90;;;;;26.40;100220.00;;;;2089269;28;20566;-56
2022/08/26 00:17:51;;;;;;;12.23;11.13;;;;;26.40;100227.00;;;;2085821;28;20627;-56
2022/08/26 00:18:52;;;;;;;12.00;11.00;;;;;26.40;100225.00;;;;2087435;28;20607;-56
2022/08/26 00:19:52;;;;;;;12.50;11.40;;;;;26.30;100224.00;;;;2080979;28;20221;-56
2022/08/26 00:20:52;;;;;;;11.87;10.77;;;;;26.40;100222.00;;;;2088926;28;20632;-57
2022/08/26 00:21:53;;;;;;;11.97;10.97;;;;;26.40;100229.00;;;;2086402;28;20208;-57
2022/08/26 00:22:53;;;;;;;12.07;11.07;;;;;26.40;100194.00;;;;2086853;28;20223;-57
2022/08/26 00:23:53;;;;;;;12.40;11.30;;;;;26.40;100224.00;;;;2087796;28;20282;-57
2022/08/26 00:24:54;;;;;;;12.50;11.40;;;;;26.40;100232.00;;;;2087831;28;20254;-57
2022/08/26 00:25:54;;;;;;;12.60;11.60;;;;;26.40;100231.00;;;;2086984;28;20220;-56
2022/08/26 00:26:54;;;;;;;12.27;11.17;;;;;26.40;100233.00;;;;2086635;28;20247;-56
2022/08/26 00:27:55;;;;;;;12.20;11.20;;;;;26.40;100226.00;;;;2089677;28;20236;-56
2022/08/26 00:28:55;;;;;;;12.10;11.07;;;;;26.40;100220.00;;;;2086872;28;20217;-56
2022/08/26 00:29:55;;;;;;;11.70;10.70;;;;;26.40;100220.00;;;;2086936;28;20220;-56
2022/08/26 00:30:56;;;;;;;12.73;11.63;;;;;26.40;100223.00;;;;2085986;28;20715;-56
2022/08/26 00:31:56;;;;;;;10.83;9.83;;;;;26.20;100233.00;;;;2081790;28;20709;-56
2022/08/26 00:32:57;;;;;;;11.40;10.40;;;;;26.40;100235.00;;;;2086217;28;20239;-60
2022/08/26 00:33:57;;;;;;;11.40;10.40;;;;;26.40;100232.00;;;;2094596;28;20287;-58
2022/08/26 00:34:58;;;;;;;12.07;11.10;;;;;26.40;100242.00;;;;2094494;28;20216;-57
2022/08/26 00:35:58;;;;;;;11.70;10.60;;;;;26.40;100240.00;;;;2094549;28;20219;-57
2022/08/26 00:36:59;;;;;;;12.33;11.33;;;;;26.40;100232.00;;;;2094598;28;20327;-57
2022/08/26 00:37:59;;;;;;;11.97;10.87;;;;;26.30;100232.00;;;;2094091;28;20220;-56
2022/08/26 00:39:00;;;;;;;10.90;10.00;;;;;26.30;100236.00;;;;2095387;28;20246;-56
2022/08/26 00:40:00;;;;;;;11.33;10.33;;;;;26.30;100237.00;;;;2094241;28;20450;-57
2022/08/26 00:41:00;;;;;;;11.77;10.87;;;;;26.30;100231.00;;;;2094662;28;20265;-57
2022/08/26 00:42:01;;;;;;;12.03;11.00;;;;;26.30;100244.00;;;;2094316;28;20215;-56
2022/08/26 00:43:04;;;;;;;11.23;10.33;;;;;26.30;100239.00;;;;2094580;28;20204;-56
2022/08/26 00:44:05;;;;;;;11.30;10.30;;;;;26.30;100242.00;;;;2095108;28;20212;-57
2022/08/26 00:45:06;;;;;;;12.47;11.40;;;;;26.40;100246.00;;;;2088780;28;20777;-57
2022/08/26 00:46:09;;;;;;;11.87;10.83;;;;;26.30;100241.00;;;;2085831;28;20220;-57
2022/08/26 00:47:30;;;;;;;11.23;10.33;;;;;26.30;100246.00;;;;2078333;28;20217;-56
2022/08/26 00:48:31;;;;;;;11.30;10.30;;;;;26.40;100241.00;;;;2086813;28;20491;-57
2022/08/26 00:49:38;;;;;;;11.73;10.73;;;;;26.40;100237.00;;;;2081426;28;21253;-57
2022/08/26 00:50:40;;;;;;;10.63;9.67;;;;;26.40;100243.00;;;;2091745;28;20466;-56
2022/08/26 00:51:44;;;;;;;10.60;9.70;;;;;26.30;100242.00;;;;2093641;28;20526;-56
2022/08/26 00:52:45;;;;;;;11.13;10.23;;;;;26.30;100245.00;;;;2086478;28;20492;-56
2022/08/26 00:53:50;;;;;;;12.33;11.23;;;;;26.30;100239.00;;;;2094194;28;20458;-56
2022/08/26 00:55:19;;;;;;;11.13;10.23;;;;;26.40;100245.00;;;;2094303;28;20896;-56
2022/08/26 00:56:40;;;;;;;11.17;10.27;;;;;26.40;100238.00;;;;2089528;28;20496;-56
2022/08/26 00:57:40;;;;;;;11.50;10.50;;;;;26.40;100232.00;;;;2093079;28;20486;-56
2022/08/26 00:58:41;;;;;;;11.47;10.53;;;;;26.40;100250.00;;;;2094419;28;20458;-56
2022/08/26 00:59:44;;;;;;;11.60;10.60;;;;;26.40;100246.00;;;;2086157;28;20312;-56
2022/08/26 01:00:44;;;;;;;10.73;9.83;;;;;26.40;100234.00;;;;2086369;28;20459;-56
2022/08/26 01:01:44;;;;;;;11.53;10.63;;;;;26.40;100248.00;;;;2085936;28;20587;-56
2022/08/26 01:02:46;;;;;;;10.90;10.00;;;;;26.40;100251.00;;;;2094434;28;20228;-56
2022/08/26 01:03:46;;;;;;;10.60;9.70;;;;;26.40;100255.00;;;;2086049;28;20250;-56
2022/08/26 01:04:53;;;;;;;11.23;10.33;;;;;26.40;100255.00;;;;2068698;28;21163;-57
2022/08/26 01:05:55;;;;;;;9.93;9.13;;;;;26.40;100253.00;;;;2072780;28;20698;-56
2022/08/26 01:06:56;;;;;;;10.20;9.40;;;;;26.30;100250.00;;;;2077117;28;20513;-56
2022/08/26 01:07:57;;;;;;;10.57;9.67;;;;;26.30;100250.00;;;;2085148;28;20558;-56
2022/08/26 01:08:57;;;;;;;10.50;9.60;;;;;26.30;100252.00;;;;2094360;28;20466;-56
2022/08/26 01:10:02;;;;;;;11.07;10.13;;;;;26.40;100257.00;;;;2086661;28;20282;-56
2022/08/26 01:11:02;;;;;;;10.23;9.33;;;;;26.40;100250.00;;;;2075392;28;20216;-56
2022/08/26 01:12:03;;;;;;;10.40;9.50;;;;;26.40;100254.00;;;;2083768;28;20538;-56
2022/08/26 01:13:05;;;;;;;10.37;9.43;;;;;26.40;100251.00;;;;2085360;28;20236;-56
2022/08/26 01:14:06;;;;;;;10.60;9.70;;;;;26.40;100257.00;;;;2077146;28;20271;-57
2022/08/26 01:15:08;;;;;;;10.33;9.40;;;;;26.40;100258.00;;;;2077212;28;20525;-57
2022/08/26 01:16:11;;;;;;;9.97;9.10;;;;;26.40;100261.00;;;;2083218;28;20289;-56
2022/08/26 01:17:11;;;;;;;9.60;8.80;;;;;26.40;100236.00;;;;2069189;28;21012;-57
2022/08/26 01:18:12;;;;;;;9.87;9.00;;;;;26.40;100265.00;;;;2076300;28;20575;-56
2022/08/26 01:19:19;;;;;;;10.87;9.90;;;;;26.30;100230.00;;;;2076399;28;20233;-56
2022/08/26 01:20:56;;;;;;;9.63;8.83;;;;;26.40;100255.00;;;;2076772;28;20220;-56
2022/08/26 01:21:58;;;;;;;10.47;9.57;;;;;26.40;100254.00;;;;2082416;28;20451;-57
2022/08/26 01:23:00;;;;;;;10.20;9.40;;;;;26.40;100256.00;;;;2085120;28;21034;-56
2022/08/26 01:24:00;;;;;;;11.30;10.40;;;;;26.40;100261.00;;;;2076074;28;20462;-58
2022/08/26 01:25:01;;;;;;;9.60;8.80;;;;;26.30;100257.00;;;;2085023;28;20467;-57
2022/08/26 01:26:04;;;;;;;9.27;8.47;;;;;26.30;100257.00;;;;2077474;28;20292;-57
2022/08/26 01:27:06;;;;;;;9.93;9.13;;;;;26.30;100236.00;;;;2078166;28;20213;-56
2022/08/26 01:28:11;;;;;;;9.33;8.53;;;;;26.30;100257.00;;;;2077033;28;21123;-56
2022/08/26 01:29:14;;;;;;;9.70;8.90;;;;;26.30;100254.00;;;;2081717;28;20492;-57
2022/08/26 01:30:14;;;;;;;10.20;9.30;;;;;26.30;100234.00;;;;2077848;28;20460;-56
2022/08/26 01:31:16;;;;;;;9.40;8.60;;;;;26.30;100250.00;;;;2079449;28;20873;-56
2022/08/26 01:32:18;;;;;;;9.53;8.73;;;;;26.30;100265.00;;;;2079467;28;20219;-56
2022/08/26 01:33:22;;;;;;;10.10;9.30;;;;;26.30;100261.00;;;;2071904;28;20535;-56
2022/08/26 01:34:28;;;;;;;9.30;8.50;;;;;26.30;100266.00;;;;2079819;28;20483;-57
2022/08/26 01:35:29;;;;;;;9.30;8.60;;;;;26.30;100269.00;;;;2091941;28;20498;-57
2022/08/26 01:36:29;;;;;;;9.50;8.70;;;;;26.30;100266.00;;;;2078879;28;20490;-57
2022/08/26 01:37:32;;;;;;;9.53;8.73;;;;;26.30;100267.00;;;;2085986;28;20254;-56
2022/08/26 01:38:33;;;;;;;9.33;8.50;;;;;26.30;100261.00;;;;2086598;28;20331;-56
2022/08/26 01:39:33;;;;;;;10.10;9.20;;;;;26.30;100261.00;;;;2081578;28;20456;-56
2022/08/26 01:40:36;;;;;;;9.57;8.77;;;;;26.30;100261.00;;;;2078679;28;20221;-57
2022/08/26 01:41:36;;;;;;;9.03;8.23;;;;;26.30;100268.00;;;;2077581;28;20799;-56
2022/08/26 01:42:37;;;;;;;9.00;8.20;;;;;26.30;100265.00;;;;2078890;28;20517;-56
2022/08/26 01:43:37;;;;;;;10.30;9.50;;;;;26.30;100243.00;;;;2070423;28;20773;-57
2022/08/26 01:44:46;;;;;;;9.07;8.37;;;;;26.30;100277.00;;;;2070206;28;20609;-56
2022/08/26 01:45:47;;;;;;;8.37;7.67;;;;;26.30;100266.00;;;;2076210;28;20214;-57
2022/08/26 01:46:48;;;;;;;8.87;8.07;;;;;26.30;100253.00;;;;2087933;28;20459;-57
2022/08/26 01:47:49;;;;;;;9.77;8.90;;;;;26.30;100277.00;;;;2085772;28;20723;-56
2022/08/26 01:48:49;;;;;;;9.87;9.07;;;;;26.30;100239.00;;;;2085884;28;20546;-56
2022/08/26 01:49:50;;;;;;;10.03;9.13;;;;;26.30;100250.00;;;;2083281;28;20924;-57
2022/08/26 01:50:51;;;;;;;9.50;8.70;;;;;26.30;100278.00;;;;2078814;28;20755;-57
2022/08/26 01:51:52;;;;;;;8.93;8.23;;;;;26.30;100283.00;;;;2072500;28;20737;-57
2022/08/26 01:52:53;;;;;;;8.90;8.20;;;;;26.40;100280.00;;;;2078596;28;20638;-57
2022/08/26 01:53:53;;;;;;;8.87;8.10;;;;;26.30;100275.00;;;;2078754;28;20480;-56
2022/08/26 01:54:54;;;;;;;8.87;8.17;;;;;26.40;100280.00;;;;2078764;28;20216;-56
2022/08/26 01:55:56;;;;;;;10.00;9.20;;;;;26.30;100261.00;;;;2085721;28;20239;-56
2022/08/26 01:56:57;;;;;;;9.20;8.40;;;;;26.30;100281.00;;;;2079335;28;20222;-56
2022/08/26 01:57:57;;;;;;;8.60;7.90;;;;;26.30;100255.00;;;;2070188;28;20476;-56
2022/08/26 01:58:59;;;;;;;9.27;8.50;;;;;26.40;100281.00;;;;2071351;28;20453;-56
2022/08/26 02:00:00;;;;;;;9.53;8.73;;;;;26.30;100288.00;;;;2079372;28;20214;-57
2022/08/26 02:01:00;;;;;;;9.30;8.50;;;;;26.30;100277.00;;;;2074705;28;20467;-57
2022/08/26 02:02:01;;;;;;;9.70;8.90;;;;;26.30;100296.00;;;;2086363;28;20462;-57
2022/08/26 02:03:20;;;;;;;9.70;8.90;;;;;26.30;100278.00;;;;2079222;28;20240;-56
2022/08/26 02:04:46;;;;;;;9.20;8.40;;;;;26.40;100269.00;;;;2086760;28;20270;-57
2022/08/26 02:05:55;;;;;;;9.27;8.47;;;;;26.40;100285.00;;;;2084838;28;20458;-56
2022/08/26 02:06:55;;;;;;;9.70;8.90;;;;;26.40;100284.00;;;;2082762;28;20451;-57
2022/08/26 02:07:56;;;;;;;9.13;8.40;;;;;26.30;100293.00;;;;2077912;28;20983;-57
2022/08/26 02:08:56;;;;;;;9.20;8.50;;;;;26.30;100288.00;;;;2079062;28;20609;-56
2022/08/26 02:09:57;;;;;;;9.30;8.50;;;;;26.30;100288.00;;;;2095620;28;20893;-57
2022/08/26 02:10:57;;;;;;;8.23;7.60;;;;;26.30;100292.00;;;;2096110;28;20556;-57
2022/08/26 02:12:00;;;;;;;9.00;8.30;;;;;26.30;100290.00;;;;2095656;28;20214;-57
2022/08/26 02:13:00;;;;;;;8.57;7.87;;;;;26.30;100295.00;;;;2085002;28;20239;-57
2022/08/26 02:14:28;;;;;;;8.80;8.10;;;;;26.30;100295.00;;;;2078875;28;20932;-56
2022/08/26 02:15:28;;;;;;;8.43;7.73;;;;;26.30;100296.00;;;;2078989;28;20229;-56
2022/08/26 02:16:32;;;;;;;9.10;8.40;;;;;26.30;100302.00;;;;2071241;28;20989;-56
2022/08/26 02:17:34;;;;;;;8.80;8.00;;;;;26.30;100295.00;;;;2078545;28;20769;-57
2022/08/26 02:18:36;;;;;;;8.90;8.20;;;;;26.30;100298.00;;;;2079410;28;20464;-56
2022/08/26 02:19:38;;;;;;;8.70;8.00;;;;;26.30;100292.00;;;;2079169;28;20464;-56
2022/08/26 02:20:39;;;;;;;8.60;7.90;;;;;26.30;100301.00;;;;2078835;28;20507;-56
2022/08/26 02:21:39;;;;;;;8.47;7.77;;;;;26.30;100294.00;;;;2080273;28;20460;-56
2022/08/26 02:22:40;;;;;;;8.07;7.43;;;;;26.30;100301.00;;;;2090874;28;20535;-57
2022/08/26 02:23:41;;;;;;;9.30;8.50;;;;;26.30;100307.00;;;;2079374;28;20231;-56
2022/08/26 02:24:56;;;;;;;9.00;8.30;;;;;26.30;100307.00;;;;2087426;28;20664;-57
2022/08/26 02:26:05;;;;;;;8.83;8.13;;;;;26.30;100306.00;;;;2087937;28;20508;-55
2022/08/26 02:27:06;;;;;;;8.80;8.00;;;;;26.30;100310.00;;;;2087211;28;20481;-55
2022/08/26 02:28:09;;;;;;;8.63;7.93;;;;;26.30;100312.00;;;;2086779;28;20932;-55
2022/08/26 02:29:31;;;;;;;8.63;7.93;;;;;26.30;100310.00;;;;2087896;28;20250;-55
2022/08/26 02:30:32;;;;;;;8.63;7.83;;;;;26.30;100288.00;;;;2085105;28;20815;-56
2022/08/26 02:31:32;;;;;;;8.17;7.57;;;;;26.30;100320.00;;;;2071305;28;20530;-56
2022/08/26 02:32:32;;;;;;;8.30;7.60;;;;;26.30;100322.00;;;;2087339;28;20212;-55
2022/08/26 02:33:33;;;;;;;8.60;7.90;;;;;26.30;100315.00;;;;2096426;28;20262;-55
2022/08/26 02:34:33;;;;;;;8.07;7.40;;;;;26.30;100316.00;;;;2096398;28;20232;-56
2022/08/26 02:35:34;;;;;;;8.13;7.43;;;;;26.30;100310.00;;;;2089513;28;20229;-55
2022/08/26 02:36:34;;;;;;;8.37;7.67;;;;;26.30;100317.00;;;;2091564;28;20227;-55
2022/08/26 02:37:35;;;;;;;8.57;7.87;;;;;26.30;100313.00;;;;2094743;28;20699;-56
2022/08/26 02:38:35;;;;;;;8.97;8.17;;;;;26.30;100309.00;;;;2096598;28;20583;-55
2022/08/26 02:39:36;;;;;;;8.03;7.43;;;;;26.30;100317.00;;;;2093593;28;20583;-55
2022/08/26 02:40:39;;;;;;;8.73;8.03;;;;;26.30;100305.00;;;;2078533;28;20720;-55
2022/08/26 02:41:40;;;;;;;8.53;7.83;;;;;26.30;100313.00;;;;2080871;28;20447;-56
2022/08/26 02:42:40;;;;;;;8.77;7.97;;;;;26.30;100310.00;;;;2103675;28;21009;-55
2022/08/26 02:43:40;;;;;;;8.70;8.00;;;;;26.40;100306.00;;;;2093527;28;20283;-56
2022/08/26 02:44:41;;;;;;;8.10;7.40;;;;;26.40;100313.00;;;;2096049;28;20208;-55
2022/08/26 02:45:41;;;;;;;8.00;7.40;;;;;26.40;100321.00;;;;2096236;28;20220;-57
2022/08/26 02:46:42;;;;;;;8.30;7.60;;;;;26.30;100318.00;;;;2094023;28;20224;-56
2022/08/26 02:47:42;;;;;;;8.47;7.77;;;;;26.30;100307.00;;;;2087159;28;20217;-56
2022/08/26 02:48:43;;;;;;;8.50;7.80;;;;;26.30;100288.00;;;;2088421;28;20761;-55
2022/08/26 02:49:43;;;;;;;7.93;7.23;;;;;26.30;100311.00;;;;2094497;28;20697;-56
2022/08/26 02:50:44;;;;;;;8.37;7.57;;;;;26.40;100314.00;;;;2087233;28;20220;-56
2022/08/26 02:51:45;;;;;;;9.10;8.40;;;;;26.30;100309.00;;;;2087338;28;20220;-55
2022/08/26 02:52:47;;;;;;;7.83;7.17;;;;;26.30;100306.00;;;;2087391;28;20220;-56
2022/08/26 02:53:47;;;;;;;8.60;7.83;;;;;26.30;100314.00;;;;2096157;28;20918;-55
2022/08/26 02:54:47;;;;;;;8.23;7.53;;;;;26.30;100339.00;;;;2089781;28;20459;-56
2022/08/26 02:55:48;;;;;;;8.40;7.70;;;;;26.30;100341.00;;;;2088139;28;20776;-57
2022/08/26 02:56:50;;;;;;;8.40;7.70;;;;;26.30;100314.00;;;;2087382;28;20763;-57
2022/08/26 02:57:51;;;;;;;8.03;7.43;;;;;26.30;100303.00;;;;2079205;28;20224;-57
2022/08/26 02:58:51;;;;;;;8.97;8.27;;;;;26.30;100315.00;;;;2095417;28;20799;-56
2022/08/26 02:59:51;;;;;;;8.70;8.00;;;;;26.30;100311.00;;;;2095767;28;20488;-61
2022/08/26 03:00:52;;;;;;;8.47;7.77;;;;;26.30;100314.00;;;;2096132;28;20229;-57
2022/08/26 03:01:52;;;;;;;8.57;7.87;;;;;26.30;100314.00;;;;2092560;28;20217;-56
2022/08/26 03:02:53;;;;;;;8.20;7.60;;;;;26.30;100316.00;;;;2090931;28;20212;-57
2022/08/26 03:03:54;;;;;;;7.90;7.30;;;;;26.30;100317.00;;;;2087960;28;20681;-58
2022/08/26 03:04:54;;;;;;;8.47;7.77;;;;;26.30;100195.00;;;;2088074;28;20455;-57
2022/08/26 03:05:54;;;;;;;7.90;7.30;;;;;26.40;100302.00;;;;2095174;28;20584;-57
2022/08/26 03:06:55;;;;;;;7.37;6.77;;;;;26.40;100317.00;;;;2080813;28;20674;-57
2022/08/26 03:07:55;;;;;;;8.07;7.47;;;;;26.30;100311.00;;;;2086682;28;20208;-56
2022/08/26 03:08:56;;;;;;;8.50;7.80;;;;;26.30;100309.00;;;;2096536;28;20216;-57
2022/08/26 03:09:57;;;;;;;8.90;8.10;;;;;26.30;100309.00;;;;2094913;28;20307;-57
2022/08/26 03:10:58;;;;;;;7.73;7.13;;;;;26.30;100310.00;;;;2087198;28;20217;-56
2022/08/26 03:11:58;;;;;;;8.43;7.73;;;;;26.30;100314.00;;;;2089399;28;20213;-56
2022/08/26 03:12:59;;;;;;;8.70;8.00;;;;;26.30;100313.00;;;;2087965;28;20460;-57
2022/08/26 03:13:59;;;;;;;7.67;7.07;;;;;26.30;100307.00;;;;2087426;28;20219;-56
2022/08/26 03:15:00;;;;;;;7.97;7.27;;;;;26.30;100300.00;;;;2084954;28;20447;-57
2022/08/26 03:16:00;;;;;;;7.93;7.33;;;;;26.30;100310.00;;;;2090251;28;20402;-56
2022/08/26 03:17:00;;;;;;;8.57;7.87;;;;;26.30;100310.00;;;;2093052;28;20558;-56
2022/08/26 03:18:01;;;;;;;7.83;7.23;;;;;26.30;100310.00;;;;2086633;28;20267;-56
2022/08/26 03:19:02;;;;;;;8.23;7.53;;;;;26.20;100306.00;;;;2092257;28;20223;-56
2022/08/26 03:20:04;;;;;;;8.10;7.50;;;;;26.30;100312.00;;;;2089265;28;20220;-56
2022/08/26 03:21:09;;;;;;;7.80;7.20;;;;;26.20;100314.00;;;;2077975;28;20946;-57
2022/08/26 03:22:10;;;;;;;7.87;7.27;;;;;26.20;100304.00;;;;2076111;28;20460;-56
2022/08/26 03:23:11;;;;;;;8.60;7.90;;;;;26.30;100299.00;;;;2084701;28;20471;-57
2022/08/26 03:24:11;;;;;;;8.27;7.57;;;;;26.30;100302.00;;;;2088557;28;20452;-56
2022/08/26 03:25:14;;;;;;;8.70;7.77;;;;;26.30;100310.00;;;;2078654;28;20736;-56
2022/08/26 03:26:14;;;;;;;7.83;7.23;;;;;26.30;100315.00;;;;2070709;28;20221;-56
2022/08/26 03:27:14;;;;;;;8.03;7.27;;;;;26.20;100307.00;;;;2078510;28;20492;-56
2022/08/26 03:28:15;;;;;;;7.90;7.23;;;;;26.30;100314.00;;;;2086736;28;20221;-56
2022/08/26 03:30:40;;;;;;;7.87;7.27;;;;;26.30;100309.00;;;;2085707;28;20598;-56
2022/08/26 03:31:40;;;;;;;7.93;7.23;;;;;26.30;100311.00;;;;2087320;28;20566;-57
2022/08/26 03:32:41;;;;;;;8.30;7.70;;;;;26.30;100311.00;;;;2086606;28;21062;-57
2022/08/26 03:33:41;;;;;;;10.43;7.50;;;;;26.30;100309.00;;;;2078351;28;20221;-56
2022/08/26 03:34:41;;;;;;;7.73;7.13;;;;;26.30;100305.00;;;;2086860;28;20271;-56
2022/08/26 03:35:42;;;;;;;8.57;7.77;;;;;26.30;100305.00;;;;2087375;28;20231;-56
2022/08/26 03:36:43;;;;;;;8.20;7.50;;;;;26.30;100316.00;;;;2086783;28;20297;-56
2022/08/26 03:37:43;;;;;;;8.30;7.50;;;;;26.30;100312.00;;;;2077764;28;20252;-56
2022/08/26 03:38:43;;;;;;;8.07;7.47;;;;;26.30;100313.00;;;;2078790;28;20302;-56
2022/08/26 03:39:44;;;;;;;8.10;7.40;;;;;26.30;100310.00;;;;2086958;28;20266;-56
2022/08/26 03:40:44;;;;;;;7.70;7.10;;;;;26.30;100310.00;;;;2089194;28;20216;-56
2022/08/26 03:41:44;;;;;;;7.90;7.30;;;;;26.30;100312.00;;;;2095465;28;20219;-57
2022/08/26 03:42:45;;;;;;;7.87;7.27;;;;;26.30;100318.00;;;;2086715;28;20251;-56
2022/08/26 03:43:47;;;;;;;7.50;6.90;;;;;26.30;100316.00;;;;2086465;28;20278;-56
2022/08/26 03:44:47;;;;;;;7.40;6.80;;;;;26.30;100320.00;;;;2091060;28;20219;-56
2022/08/26 03:45:47;;;;;;;7.60;7.00;;;;;26.30;100310.00;;;;2087364;28;20541;-56
2022/08/26 03:46:48;;;;;;;8.17;7.57;;;;;26.30;100314.00;;;;2094926;28;20761;-56
2022/08/26 03:47:48;;;;;;;8.27;7.57;;;;;26.30;100317.00;;;;2084902;28;20721;-57
2022/08/26 03:48:49;;;;;;;8.33;7.63;;;;;26.30;100311.00;;;;2102932;28;20320;-57
2022/08/26 03:49:49;;;;;;;8.50;7.80;;;;;26.30;100313.00;;;;2100820;28;20250;-56
2022/08/26 03:50:49;;;;;;;7.90;7.30;;;;;26.30;100317.00;;;;2095364;28;20212;-56
2022/08/26 03:51:50;;;;;;;8.30;7.60;;;;;26.30;100317.00;;;;2095557;28;20220;-56
2022/08/26 03:52:51;;;;;;;8.37;7.77;;;;;26.30;100313.00;;;;2095843;28;20227;-56
2022/08/26 03:53:51;;;;;;;7.70;7.10;;;;;26.30;100323.00;;;;2095138;28;20235;-56
2022/08/26 03:54:51;;;;;;;7.60;7.00;;;;;26.30;100309.00;;;;2087621;28;20845;-57
2022/08/26 03:55:52;;;;;;;8.00;7.40;;;;;26.30;100340.00;;;;2095416;28;20220;-57
2022/08/26 03:56:52;;;;;;;8.50;7.90;;;;;26.30;100316.00;;;;2094492;28;20311;-56
2022/08/26 03:57:53;;;;;;;7.43;6.90;;;;;26.30;100326.00;;;;2083031;28;20231;-57
2022/08/26 03:58:53;;;;;;;8.13;7.43;;;;;26.30;100318.00;;;;2086563;28;20216;-56
2022/08/26 03:59:53;;;;;;;7.83;7.20;;;;;26.30;100324.00;;;;2086695;28;20217;-57
2022/08/26 04:00:54;;;;;;;7.93;7.33;;;;;26.30;100322.00;;;;2086525;28;20217;-57
2022/08/26 04:01:54;;;;;;;8.23;7.63;;;;;26.30;100324.00;;;;2087581;28;20261;-57
2022/08/26 04:02:54;;;;;;;7.27;6.77;;;;;26.30;100323.00;;;;2090564;28;20208;-57
2022/08/26 04:03:58;;;;;;;7.50;6.90;;;;;26.30;100323.00;;;;2095711;28;20251;-56
2022/08/26 04:04:58;;;;;;;8.17;7.53;;;;;26.30;100323.00;;;;2087208;28;20220;-56
2022/08/26 04:05:58;;;;;;;7.83;7.23;;;;;26.30;100324.00;;;;2086729;28;20443;-56
2022/08/26 04:06:59;;;;;;;8.10;7.40;;;;;26.30;100333.00;;;;2093615;28;20219;-57
2022/08/26 04:07:59;;;;;;;7.83;7.23;;;;;26.30;100333.00;;;;2094362;28;20223;-57
2022/08/26 04:09:01;;;;;;;8.40;7.70;;;;;26.30;100325.00;;;;2088739;28;20219;-57
2022/08/26 04:10:02;;;;;;;7.90;7.20;;;;;26.30;100334.00;;;;2094863;28;20216;-56
2022/08/26 04:11:03;;;;;;;7.60;7.00;;;;;26.20;100326.00;;;;2094326;28;20446;-61
2022/08/26 04:12:03;;;;;;;7.90;7.20;;;;;26.30;100326.00;;;;2094806;28;20208;-56
2022/08/26 04:13:04;;;;;;;8.03;7.43;;;;;26.30;100330.00;;;;2094630;28;20470;-57
2022/08/26 04:14:06;;;;;;;8.00;7.40;;;;;26.30;100332.00;;;;2095240;28;20254;-56
2022/08/26 04:15:08;;;;;;;8.30;7.60;;;;;26.30;100325.00;;;;2094596;28;20218;-56
2022/08/26 04:16:08;;;;;;;7.80;7.10;;;;;26.30;100335.00;;;;2085539;28;20467;-56
2022/08/26 04:17:08;;;;;;;7.63;7.07;;;;;26.30;100325.00;;;;2094203;28;20451;-57
2022/08/26 04:18:09;;;;;;;8.23;7.57;;;;;26.30;100323.00;;;;2093980;28;20244;-56
2022/08/26 04:19:10;;;;;;;7.93;7.33;;;;;26.30;100333.00;;;;2094473;28;20257;-56
2022/08/26 04:20:14;;;;;;;8.43;7.40;;;;;26.30;100333.00;;;;2093952;28;20314;-56
2022/08/26 04:21:14;;;;;;;8.80;8.10;;;;;26.30;100330.00;;;;2091929;28;20462;-56
2022/08/26 04:22:14;;;;;;;7.40;6.80;;;;;26.30;100330.00;;;;2086474;28;20993;-56
2022/08/26 04:23:15;;;;;;;8.60;7.90;;;;;26.30;100346.00;;;;2086674;28;20702;-56
2022/08/26 04:24:15;;;;;;;8.33;7.73;;;;;26.30;100337.00;;;;2086492;28;20734;-56
2022/08/26 04:25:17;;;;;;;8.30;7.63;;;;;26.30;100338.00;;;;2090411;28;20582;-56
2022/08/26 04:26:18;;;;;;;8.30;7.60;;;;;26.30;100323.00;;;;2086515;28;20232;-56
2022/08/26 04:27:19;;;;;;;8.53;7.90;;;;;26.30;100335.00;;;;2086613;28;20463;-56
2022/08/26 04:28:20;;;;;;;8.43;7.83;;;;;26.30;100340.00;;;;2086422;28;20865;-56
2022/08/26 04:29:22;;;;;;;8.10;7.47;;;;;26.30;100335.00;;;;2086360;28;20298;-56
2022/08/26 04:30:23;;;;;;;7.70;7.10;;;;;26.30;100334.00;;;;2090143;28;20896;-56
2022/08/26 04:31:24;;;;;;;8.23;7.53;;;;;26.30;100335.00;;;;2094321;28;20459;-56
2022/08/26 04:32:24;;;;;;;7.70;7.10;;;;;26.30;100335.00;;;;2094582;28;20599;-56
2022/08/26 04:33:24;;;;;;;7.90;7.20;;;;;26.30;100335.00;;;;2091987;28;20550;-56
2022/08/26 04:34:27;;;;;;;8.23;7.63;;;;;26.30;100335.00;;;;2086419;28;20220;-56
2022/08/26 04:35:27;;;;;;;8.40;7.70;;;;;26.30;100338.00;;;;2094835;28;20224;-56
2022/08/26 04:36:27;;;;;;;8.17;7.47;;;;;26.30;100345.00;;;;2095309;28;20481;-56
2022/08/26 04:37:28;;;;;;;8.10;7.50;;;;;26.30;100345.00;;;;2088509;28;20221;-55
2022/08/26 04:38:29;;;;;;;9.10;8.40;;;;;26.30;100343.00;;;;2078029;28;20213;-56
2022/08/26 04:39:29;;;;;;;8.43;7.73;;;;;26.30;100359.00;;;;2078047;28;20452;-56
2022/08/26 04:40:29;;;;;;;7.90;7.30;;;;;26.30;100351.00;;;;2087185;28;20260;-56
2022/08/26 04:41:30;;;;;;;8.67;7.97;;;;;26.30;100349.00;;;;2087071;28;20561;-56
2022/08/26 04:42:32;;;;;;;8.43;7.77;;;;;26.30;100357.00;;;;2086992;28;21037;-56
2022/08/26 04:43:32;;;;;;;9.00;8.30;;;;;26.30;100351.00;;;;2087164;28;20290;-56
2022/08/26 04:44:33;;;;;;;9.00;8.20;;;;;26.30;100353.00;;;;2086687;28;20451;-57
2022/08/26 04:45:37;;;;;;;8.03;7.33;;;;;26.30;100349.00;;;;2086917;28;20730;-55
2022/08/26 04:46:37;;;;;;;8.57;7.87;;;;;26.30;100350.00;;;;2087250;28;20546;-56
2022/08/26 04:47:37;;;;;;;8.30;7.70;;;;;26.30;100352.00;;;;2085917;28;20887;-57
2022/08/26 04:48:38;;;;;;;9.10;8.30;;;;;26.20;100354.00;;;;2086659;28;20608;-55
2022/08/26 04:49:38;;;;;;;9.67;8.87;;;;;26.30;100353.00;;;;2081798;28;20274;-61
2022/08/26 04:50:39;;;;;;;8.10;7.50;;;;;26.30;100348.00;;;;2086432;28;20612;-59
2022/08/26 04:51:39;;;;;;;9.00;8.30;;;;;26.30;100349.00;;;;2086906;28;20769;-58
2022/08/26 04:52:39;;;;;;;7.80;7.20;;;;;26.30;100345.00;;;;2086220;28;20267;-59
2022/08/26 04:53:39;;;;;;;9.43;8.73;;;;;26.30;100349.00;;;;2088412;28;20303;-56
2022/08/26 04:54:40;;;;;;;8.37;7.67;;;;;26.30;100338.00;;;;2095151;28;20215;-55
2022/08/26 04:55:41;;;;;;;9.07;8.40;;;;;26.20;100346.00;;;;2095026;28;20231;-60
2022/08/26 04:56:42;;;;;;;9.70;9.00;;;;;26.30;100351.00;;;;2081325;28;20769;-57
2022/08/26 04:57:43;;;;;;;9.00;8.30;;;;;26.30;100343.00;;;;2077124;28;20304;-57
2022/08/26 04:58:43;;;;;;;9.03;8.33;;;;;26.30;100344.00;;;;2086825;28;21042;-56
2022/08/26 04:59:43;;;;;;;8.47;7.87;;;;;26.30;100346.00;;;;2086179;28;20519;-56
2022/08/26 05:00:45;;;;;;;9.37;8.67;;;;;26.30;100349.00;;;;2086250;28;20244;-56
2022/08/26 05:01:47;;;;;;;8.20;7.60;;;;;26.30;100352.00;;;;2086719;28;20233;-56
2022/08/26 05:02:47;;;;;;;9.03;8.23;;;;;26.30;100349.00;;;;2086248;28;20627;-56
2022/08/26 05:03:48;;;;;;;8.50;7.90;;;;;26.30;100341.00;;;;2086226;28;20459;-56
2022/08/26 05:04:48;;;;;;;9.17;8.47;;;;;26.30;100376.00;;;;2080370;28;20236;-56